sensor_id;sensor_type;location;lat;lon;timestamp;pressure;altitude;pressure_sealevel;temperature
69785;BMP280;14177;51.520;6.764;2023-09-30T00:02:09;102245.56;;;12.77
69785;BMP280;14177;51.520;6.764;2023-09-30T00:04:39;102249.06;;;12.76
69785;BMP280;14177;51.520;6.764;2023-09-30T00:07:06;102255.16;;;12.75
69785;BMP280;14177;51.520;6.764;2023-09-30T00:09:34;102254.28;;;12.76
69785;BMP280;14177;51.520;6.764;2023-09-30T00:12:01;102261.22;;;12.77
69785;BMP280;14177;51.520;6.764;2023-09-30T00:14:29;102255.13;;;12.76
69785;BMP280;14177;51.520;6.764;2023-09-30T00:16:56;102255.16;;;12.75
69785;BMP280;14177;51.520;6.764;2023-09-30T00:19:23;102254.28;;;12.76
69785;BMP280;14177;51.520;6.764;2023-09-30T00:21:50;102247.34;;;12.75
69785;BMP280;14177;51.520;6.764;2023-09-30T00:24:17;102256.91;;;12.76
69785;BMP280;14177;51.520;6.764;2023-09-30T00:26:44;102255.16;;;12.75
69785;BMP280;14177;51.520;6.764;2023-09-30T00:29:11;102245.63;;;12.74
69785;BMP280;14177;51.520;6.764;2023-09-30T00:31:38;102252.53;;;12.76
69785;BMP280;14177;51.520;6.764;2023-09-30T00:34:05;102260.34;;;12.76
69785;BMP280;14177;51.520;6.764;2023-09-30T00:36:32;102264.72;;;12.76
69785;BMP280;14177;51.520;6.764;2023-09-30T00:38:59;102271.66;;;12.77
69785;BMP280;14177;51.520;6.764;2023-09-30T00:41:26;102257.78;;;12.75
69785;BMP280;14177;51.520;6.764;2023-09-30T00:43:53;102255.13;;;12.76
69785;BMP280;14177;51.520;6.764;2023-09-30T00:46:26;102256.91;;;12.76
69785;BMP280;14177;51.520;6.764;2023-09-30T00:48:57;102269.03;;;12.77
69785;BMP280;14177;51.520;6.764;2023-09-30T00:51:26;102275.09;;;12.77
69785;BMP280;14177;51.520;6.764;2023-09-30T00:53:57;102276.88;;;12.77
69785;BMP280;14177;51.520;6.764;2023-09-30T00:56:28;102285.56;;;12.76
69785;BMP280;14177;51.520;6.764;2023-09-30T00:58:58;102292.56;;;12.74
69785;BMP280;14177;51.520;6.764;2023-09-30T01:01:26;102289.13;;;12.73
69785;BMP280;14177;51.520;6.764;2023-09-30T01:03:53;102280.41;;;12.73
69785;BMP280;14177;51.520;6.764;2023-09-30T01:06:20;102271.69;;;12.74
69785;BMP280;14177;51.520;6.764;2023-09-30T01:08:48;102262.16;;;12.73
69785;BMP280;14177;51.520;6.764;2023-09-30T01:11:15;102263.91;;;12.72
69785;BMP280;14177;51.520;6.764;2023-09-30T01:13:43;102252.66;;;12.70
69785;BMP280;14177;51.520;6.764;2023-09-30T01:16:11;102261.38;;;12.69
69785;BMP280;14177;51.520;6.764;2023-09-30T01:18:40;102260.47;;;12.70
69785;BMP280;14177;51.520;6.764;2023-09-30T01:21:10;102271.75;;;12.71
69785;BMP280;14177;51.520;6.764;2023-09-30T01:23:40;102281.34;;;12.69
69785;BMP280;14177;51.520;6.764;2023-09-30T01:26:12;102295.31;;;12.66
69785;BMP280;14177;51.520;6.764;2023-09-30T01:28:41;102297.09;;;12.64
69785;BMP280;14177;51.520;6.764;2023-09-30T01:31:09;102291.91;;;12.61
69785;BMP280;14177;51.520;6.764;2023-09-30T01:33:36;102295.38;;;12.62
69785;BMP280;14177;51.520;6.764;2023-09-30T01:36:03;102283.25;;;12.59
69785;BMP280;14177;51.520;6.764;2023-09-30T01:38:31;102282.38;;;12.60
69785;BMP280;14177;51.520;6.764;2023-09-30T01:40:58;102286.75;;;12.58
69785;BMP280;14177;51.520;6.764;2023-09-30T01:43:27;102290.19;;;12.59
69785;BMP280;14177;51.520;6.764;2023-09-30T01:45:55;102294.56;;;12.58
69785;BMP280;14177;51.520;6.764;2023-09-30T01:48:22;102288.50;;;12.56
69785;BMP280;14177;51.520;6.764;2023-09-30T01:50:49;102299.84;;;12.54
69785;BMP280;14177;51.520;6.764;2023-09-30T01:53:16;102297.25;;;12.52
69785;BMP280;14177;51.520;6.764;2023-09-30T01:55:44;102291.22;;;12.49
69785;BMP280;14177;51.520;6.764;2023-09-30T01:58:11;102312.13;;;12.47
69785;BMP280;14177;51.520;6.764;2023-09-30T02:00:38;102324.31;;;12.44
69785;BMP280;14177;51.520;6.764;2023-09-30T02:03:05;102325.25;;;12.40
69785;BMP280;14177;51.520;6.764;2023-09-30T02:05:34;102313.16;;;12.36
69785;BMP280;14177;51.520;6.764;2023-09-30T02:08:04;102310.59;;;12.33
69785;BMP280;14177;51.520;6.764;2023-09-30T02:10:33;102318.50;;;12.27
69785;BMP280;14177;51.520;6.764;2023-09-30T02:13:01;102311.56;;;12.26
69785;BMP280;14177;51.520;6.764;2023-09-30T02:15:28;102317.66;;;12.23
69785;BMP280;14177;51.520;6.764;2023-09-30T02:17:55;102313.38;;;12.21
69785;BMP280;14177;51.520;6.764;2023-09-30T02:20:23;102309.03;;;12.20
69785;BMP280;14177;51.520;6.764;2023-09-30T02:22:52;102308.22;;;12.16
69785;BMP280;14177;51.520;6.764;2023-09-30T02:25:21;102303.00;;;12.16
69785;BMP280;14177;51.520;6.764;2023-09-30T02:27:50;102297.81;;;12.15
69785;BMP280;14177;51.520;6.764;2023-09-30T02:30:18;102292.66;;;12.12
69785;BMP280;14177;51.520;6.764;2023-09-30T02:32:45;102290.97;;;12.08
69785;BMP280;14177;51.520;6.764;2023-09-30T02:35:13;102280.59;;;12.05
69785;BMP280;14177;51.520;6.764;2023-09-30T02:37:42;102287.56;;;12.03
69785;BMP280;14177;51.520;6.764;2023-09-30T02:40:10;102292.81;;;12.02
69785;BMP280;14177;51.520;6.764;2023-09-30T02:42:39;102290.22;;;12.00
69785;BMP280;14177;51.520;6.764;2023-09-30T02:45:07;102305.03;;;11.97
69785;BMP280;14177;51.520;6.764;2023-09-30T02:47:35;102314.59;;;11.93
69785;BMP280;14177;51.520;6.764;2023-09-30T02:50:06;102308.59;;;11.90
69785;BMP280;14177;51.520;6.764;2023-09-30T02:52:35;102312.97;;;11.86
69785;BMP280;14177;51.520;6.764;2023-09-30T02:55:03;102304.34;;;11.83
69785;BMP280;14177;51.520;6.764;2023-09-30T02:57:30;102300.00;;;11.82
69785;BMP280;14177;51.520;6.764;2023-09-30T02:59:58;102307.81;;;11.80
69785;BMP280;14177;51.520;6.764;2023-09-30T03:02:28;102319.13;;;11.79
69785;BMP280;14177;51.520;6.764;2023-09-30T03:04:54;102324.34;;;11.78
69785;BMP280;14177;51.520;6.764;2023-09-30T03:07:25;102320.03;;;11.77
69785;BMP280;14177;51.520;6.764;2023-09-30T03:09:52;102307.00;;;11.77
69785;BMP280;14177;51.520;6.764;2023-09-30T03:12:21;102313.09;;;11.74
69785;BMP280;14177;51.520;6.764;2023-09-30T03:14:48;102311.38;;;11.73
69785;BMP280;14177;51.520;6.764;2023-09-30T03:17:15;102318.34;;;11.73
69785;BMP280;14177;51.520;6.764;2023-09-30T03:19:42;102312.25;;;11.72
69785;BMP280;14177;51.520;6.764;2023-09-30T03:22:09;102310.53;;;11.71
69785;BMP280;14177;51.520;6.764;2023-09-30T03:24:39;102314.88;;;11.69
69785;BMP280;14177;51.520;6.764;2023-09-30T03:27:07;102316.66;;;11.67
69785;BMP280;14177;51.520;6.764;2023-09-30T03:29:38;102301.91;;;11.66
69785;BMP280;14177;51.520;6.764;2023-09-30T03:32:05;102295.84;;;11.66
69785;BMP280;14177;51.520;6.764;2023-09-30T03:34:34;102297.63;;;11.65
69785;BMP280;14177;51.520;6.764;2023-09-30T03:37:03;102294.13;;;11.65
69785;BMP280;14177;51.520;6.764;2023-09-30T03:39:33;102303.69;;;11.64
69785;BMP280;14177;51.520;6.764;2023-09-30T03:42:01;102299.38;;;11.63
69785;BMP280;14177;51.520;6.764;2023-09-30T03:44:28;102307.19;;;11.63
69785;BMP280;14177;51.520;6.764;2023-09-30T03:46:55;102304.56;;;11.63
69785;BMP280;14177;51.520;6.764;2023-09-30T03:49:24;102297.66;;;11.62
69785;BMP280;14177;51.520;6.764;2023-09-30T03:51:52;102297.66;;;11.61
69785;BMP280;14177;51.520;6.764;2023-09-30T03:54:20;102303.72;;;11.60
69785;BMP280;14177;51.520;6.764;2023-09-30T03:56:48;102302.03;;;11.57
69785;BMP280;14177;51.520;6.764;2023-09-30T03:59:15;102306.41;;;11.55
69785;BMP280;14177;51.520;6.764;2023-09-30T04:01:42;102296.00;;;11.52
69785;BMP280;14177;51.520;6.764;2023-09-30T04:04:11;102289.06;;;11.51
69785;BMP280;14177;51.520;6.764;2023-09-30T04:06:38;102289.94;;;11.50
69785;BMP280;14177;51.520;6.764;2023-09-30T04:09:08;102293.44;;;11.46
69785;BMP280;14177;51.520;6.764;2023-09-30T04:11:38;102302.13;;;11.45
69785;BMP280;14177;51.520;6.764;2023-09-30T04:14:07;102306.50;;;11.43
69785;BMP280;14177;51.520;6.764;2023-09-30T04:16:35;102304.78;;;11.42
69785;BMP280;14177;51.520;6.764;2023-09-30T04:19:04;102295.25;;;11.41
69785;BMP280;14177;51.520;6.764;2023-09-30T04:21:31;102302.16;;;11.41
69785;BMP280;14177;51.520;6.764;2023-09-30T04:24:01;102303.91;;;11.42
69785;BMP280;14177;51.520;6.764;2023-09-30T04:26:28;102307.38;;;11.41
69785;BMP280;14177;51.520;6.764;2023-09-30T04:28:55;102305.66;;;11.41
69785;BMP280;14177;51.520;6.764;2023-09-30T04:31:23;102299.59;;;11.39
69785;BMP280;14177;51.520;6.764;2023-09-30T04:33:51;102308.28;;;11.38
69785;BMP280;14177;51.520;6.764;2023-09-30T04:36:19;102305.72;;;11.35
69785;BMP280;14177;51.520;6.764;2023-09-30T04:38:46;102302.25;;;11.33
69785;BMP280;14177;51.520;6.764;2023-09-30T04:41:14;102314.44;;;11.31
69785;BMP280;14177;51.520;6.764;2023-09-30T04:43:43;102315.31;;;11.30
69785;BMP280;14177;51.520;6.764;2023-09-30T04:46:10;102323.97;;;11.29
69785;BMP280;14177;51.520;6.764;2023-09-30T04:48:40;102320.53;;;11.29
69785;BMP280;14177;51.520;6.764;2023-09-30T04:51:08;102324.00;;;11.26
69785;BMP280;14177;51.520;6.764;2023-09-30T04:53:37;102330.09;;;11.25
69785;BMP280;14177;51.520;6.764;2023-09-30T04:56:04;102333.59;;;11.23
69785;BMP280;14177;51.520;6.764;2023-09-30T04:58:31;102348.34;;;11.22
69785;BMP280;14177;51.520;6.764;2023-09-30T05:00:58;102339.69;;;11.20
69785;BMP280;14177;51.520;6.764;2023-09-30T05:03:25;102344.03;;;11.18
69785;BMP280;14177;51.520;6.764;2023-09-30T05:05:53;102340.63;;;11.15
69785;BMP280;14177;51.520;6.764;2023-09-30T05:08:23;102351.00;;;11.13
69785;BMP280;14177;51.520;6.764;2023-09-30T05:10:51;102350.16;;;11.11
69785;BMP280;14177;51.520;6.764;2023-09-30T05:13:22;102348.44;;;11.10
69785;BMP280;14177;51.520;6.764;2023-09-30T05:15:52;102341.50;;;11.09
69785;BMP280;14177;51.520;6.764;2023-09-30T05:18:20;102344.13;;;11.09
69785;BMP280;14177;51.520;6.764;2023-09-30T05:20:47;102336.34;;;11.08
69785;BMP280;14177;51.520;6.764;2023-09-30T05:23:16;102338.06;;;11.07
69785;BMP280;14177;51.520;6.764;2023-09-30T05:25:44;102348.47;;;11.07
69785;BMP280;14177;51.520;6.764;2023-09-30T05:28:11;102351.06;;;11.07
69785;BMP280;14177;51.520;6.764;2023-09-30T05:30:40;102346.75;;;11.06
69785;BMP280;14177;51.520;6.764;2023-09-30T05:33:07;102344.13;;;11.06
69785;BMP280;14177;51.520;6.764;2023-09-30T05:35:37;102351.09;;;11.06
69785;BMP280;14177;51.520;6.764;2023-09-30T05:38:04;102354.56;;;11.05
69785;BMP280;14177;51.520;6.764;2023-09-30T05:40:32;102349.38;;;11.05
69785;BMP280;14177;51.520;6.764;2023-09-30T05:43:00;102355.41;;;11.05
69785;BMP280;14177;51.520;6.764;2023-09-30T05:45:31;102353.69;;;11.06
69785;BMP280;14177;51.520;6.764;2023-09-30T05:48:04;102352.81;;;11.07
69785;BMP280;14177;51.520;6.764;2023-09-30T05:50:34;102356.28;;;11.09
69785;BMP280;14177;51.520;6.764;2023-09-30T05:53:03;102354.50;;;11.12
69785;BMP280;14177;51.520;6.764;2023-09-30T05:55:31;102352.78;;;11.13
69785;BMP280;14177;51.520;6.764;2023-09-30T05:57:59;102350.13;;;11.14
69785;BMP280;14177;51.520;6.764;2023-09-30T06:00:27;102354.47;;;11.15
69785;BMP280;14177;51.520;6.764;2023-09-30T06:02:58;102352.69;;;11.20
69785;BMP280;14177;51.520;6.764;2023-09-30T06:05:27;102350.94;;;11.22
69785;BMP280;14177;51.520;6.764;2023-09-30T06:07:59;102355.19;;;11.32
69785;BMP280;14177;51.520;6.764;2023-09-30T06:10:26;102356.88;;;11.36
69785;BMP280;14177;51.520;6.764;2023-09-30T06:12:54;102360.31;;;11.41
69785;BMP280;14177;51.520;6.764;2023-09-30T06:15:25;102368.03;;;11.50
69785;BMP280;14177;51.520;6.764;2023-09-30T06:17:55;102369.72;;;11.57
69785;BMP280;14177;51.520;6.764;2023-09-30T06:20:23;102371.28;;;11.72
69785;BMP280;14177;51.520;6.764;2023-09-30T06:22:53;102365.00;;;11.89
69785;BMP280;14177;51.520;6.764;2023-09-30T06:25:23;102366.56;;;12.05
69785;BMP280;14177;51.520;6.764;2023-09-30T06:27:51;102369.81;;;12.20
69785;BMP280;14177;51.520;6.764;2023-09-30T06:30:19;102365.31;;;12.33
69785;BMP280;14177;51.520;6.764;2023-09-30T06:32:48;102359.91;;;12.46
69785;BMP280;14177;51.520;6.764;2023-09-30T06:35:15;102352.84;;;12.54
69785;BMP280;14177;51.520;6.764;2023-09-30T06:37:42;102364.00;;;12.64
69785;BMP280;14177;51.520;6.764;2023-09-30T06:40:12;102368.28;;;12.69
69785;BMP280;14177;51.520;6.764;2023-09-30T06:42:40;102369.84;;;12.79
69785;BMP280;14177;51.520;6.764;2023-09-30T06:45:08;102368.81;;;12.89
69785;BMP280;14177;51.520;6.764;2023-09-30T06:47:38;102360.91;;;12.97
69785;BMP280;14177;51.520;6.764;2023-09-30T06:50:11;102375.53;;;13.07
69785;BMP280;14177;51.520;6.764;2023-09-30T06:52:41;102367.53;;;13.16
69785;BMP280;14177;51.520;6.764;2023-09-30T06:55:09;102365.59;;;13.27
69785;BMP280;14177;51.520;6.764;2023-09-30T06:57:38;102368.88;;;13.39
69785;BMP280;14177;51.520;6.764;2023-09-30T07:00:09;102366.06;;;13.49
69785;BMP280;14177;51.520;6.764;2023-09-30T07:02:39;102369.34;;;13.60
69785;BMP280;14177;51.520;6.764;2023-09-30T07:05:14;102378.69;;;13.73
69785;BMP280;14177;51.520;6.764;2023-09-30T07:07:42;102386.34;;;13.82
69785;BMP280;14177;51.520;6.764;2023-09-30T07:10:12;102385.22;;;13.94
69785;BMP280;14177;51.520;6.764;2023-09-30T07:12:40;102385.00;;;14.04
69785;BMP280;14177;51.520;6.764;2023-09-30T07:15:08;102385.69;;;14.15
69785;BMP280;14177;51.520;6.764;2023-09-30T07:17:36;102398.50;;;14.27
69785;BMP280;14177;51.520;6.764;2023-09-30T07:20:05;102407.75;;;14.43
69785;BMP280;14177;51.520;6.764;2023-09-30T07:22:34;102405.59;;;14.60
69785;BMP280;14177;51.520;6.764;2023-09-30T07:25:18;102412.06;;;14.83
69785;BMP280;14177;51.520;6.764;2023-09-30T07:27:46;102427.19;;;15.07
69785;BMP280;14177;51.520;6.764;2023-09-30T07:30:15;102430.09;;;15.32
69785;BMP280;14177;51.520;6.764;2023-09-30T07:32:44;102431.13;;;15.60
69785;BMP280;14177;51.520;6.764;2023-09-30T07:35:12;102436.63;;;15.82
69785;BMP280;14177;51.520;6.764;2023-09-30T07:37:42;102437.81;;;16.03
69785;BMP280;14177;51.520;6.764;2023-09-30T07:40:12;102443.53;;;16.17
69785;BMP280;14177;51.520;6.764;2023-09-30T07:42:40;102451.84;;;16.32
69785;BMP280;14177;51.520;6.764;2023-09-30T07:45:08;102453.25;;;16.44
69785;BMP280;14177;51.520;6.764;2023-09-30T07:47:36;102460.81;;;16.54
69785;BMP280;14177;51.520;6.764;2023-09-30T07:50:03;102454.13;;;16.73
69785;BMP280;14177;51.520;6.764;2023-09-30T07:52:36;102451.81;;;16.90
69785;BMP280;14177;51.520;6.764;2023-09-30T07:55:03;102448.59;;;17.09
69785;BMP280;14177;51.520;6.764;2023-09-30T07:57:32;102450.41;;;17.35
69785;BMP280;14177;51.520;6.764;2023-09-30T08:00:00;102448.06;;;17.52
69785;BMP280;14177;51.520;6.764;2023-09-30T08:02:35;102456.44;;;17.63
69785;BMP280;14177;51.520;6.764;2023-09-30T08:05:05;102452.91;;;17.64
69785;BMP280;14177;51.520;6.764;2023-09-30T08:07:33;102454.31;;;17.74
69785;BMP280;14177;51.520;6.764;2023-09-30T08:10:02;102453.31;;;17.78
69785;BMP280;14177;51.520;6.764;2023-09-30T08:12:33;102460.69;;;17.91
69785;BMP280;14177;51.520;6.764;2023-09-30T08:15:00;102468.75;;;18.11
69785;BMP280;14177;51.520;6.764;2023-09-30T08:17:30;102468.72;;;18.37
69785;BMP280;14177;51.520;6.764;2023-09-30T08:19:57;102471.72;;;18.49
69785;BMP280;14177;51.520;6.764;2023-09-30T08:22:24;102469.75;;;18.56
69785;BMP280;14177;51.520;6.764;2023-09-30T08:24:55;102470.97;;;18.69
69785;BMP280;14177;51.520;6.764;2023-09-30T08:27:22;102485.22;;;18.86
69785;BMP280;14177;51.520;6.764;2023-09-30T08:29:51;102470.88;;;19.16
69785;BMP280;14177;51.520;6.764;2023-09-30T08:32:18;102461.34;;;19.34
69785;BMP280;14177;51.520;6.764;2023-09-30T08:34:45;102468.72;;;19.47
69785;BMP280;14177;51.520;6.764;2023-09-30T08:37:12;102463.94;;;19.76
69785;BMP280;14177;51.520;6.764;2023-09-30T08:39:40;102455.72;;;20.04
69785;BMP280;14177;51.520;6.764;2023-09-30T08:42:10;102451.47;;;20.20
69785;BMP280;14177;51.520;6.764;2023-09-30T08:44:38;102456.06;;;20.35
69785;BMP280;14177;51.520;6.764;2023-09-30T08:47:07;102450.66;;;20.38
69785;BMP280;14177;51.520;6.764;2023-09-30T08:49:42;102444.22;;;20.43
69785;BMP280;14177;51.520;6.764;2023-09-30T08:52:12;102445.47;;;20.73
69785;BMP280;14177;51.520;6.764;2023-09-30T08:54:40;102444.25;;;20.98
69785;BMP280;14177;51.520;6.764;2023-09-30T08:57:09;102438.91;;;21.17
69785;BMP280;14177;51.520;6.764;2023-09-30T08:59:40;102440.03;;;21.30
69785;BMP280;14177;51.520;6.764;2023-09-30T09:02:09;102424.91;;;21.15
69785;BMP280;14177;51.520;6.764;2023-09-30T09:04:40;102419.72;;;21.30
69785;BMP280;14177;51.520;6.764;2023-09-30T09:07:08;102424.25;;;21.45
69785;BMP280;14177;51.520;6.764;2023-09-30T09:09:35;102429.53;;;21.45
69785;BMP280;14177;51.520;6.764;2023-09-30T09:12:02;102426.81;;;21.30
69785;BMP280;14177;51.520;6.764;2023-09-30T09:14:40;102422.22;;;21.50
69785;BMP280;14177;51.520;6.764;2023-09-30T09:17:10;102419.31;;;21.73
69785;BMP280;14177;51.520;6.764;2023-09-30T09:19:37;102423.25;;;21.82
69785;BMP280;14177;51.520;6.764;2023-09-30T09:22:04;102421.84;;;21.92
69785;BMP280;14177;51.520;6.764;2023-09-30T09:24:35;102431.84;;;22.02
69785;BMP280;14177;51.520;6.764;2023-09-30T09:27:12;102428.34;;;22.18
69785;BMP280;14177;51.520;6.764;2023-09-30T09:29:39;102427.72;;;22.46
69785;BMP280;14177;51.520;6.764;2023-09-30T09:32:16;102425.69;;;22.51
69785;BMP280;14177;51.520;6.764;2023-09-30T09:34:45;102421.06;;;22.70
69785;BMP280;14177;51.520;6.764;2023-09-30T09:37:22;102424.13;;;23.24
69785;BMP280;14177;51.520;6.764;2023-09-30T09:39:56;102428.13;;;23.60
69785;BMP280;14177;51.520;6.764;2023-09-30T09:42:32;102425.75;;;23.56
69785;BMP280;14177;51.520;6.764;2023-09-30T09:45:05;102425.69;;;23.13
69785;BMP280;14177;51.520;6.764;2023-09-30T09:47:33;102416.97;;;22.49
69785;BMP280;14177;51.520;6.764;2023-09-30T09:50:05;102431.22;;;22.14
69785;BMP280;14177;51.520;6.764;2023-09-30T09:52:36;102423.22;;;22.31
69785;BMP280;14177;51.520;6.764;2023-09-30T09:55:05;102428.50;;;22.48
69785;BMP280;14177;51.520;6.764;2023-09-30T09:57:35;102417.97;;;22.46
69785;BMP280;14177;51.520;6.764;2023-09-30T10:00:03;102437.78;;;22.22
69785;BMP280;14177;51.520;6.764;2023-09-30T10:02:32;102435.75;;;21.95
69785;BMP280;14177;51.520;6.764;2023-09-30T10:05:02;102439.00;;;22.00
69785;BMP280;14177;51.520;6.764;2023-09-30T10:07:36;102443.06;;;22.07
69785;BMP280;14177;51.520;6.764;2023-09-30T10:10:14;102455.47;;;21.90
69785;BMP280;14177;51.520;6.764;2023-09-30T10:12:43;102456.19;;;21.59
69785;BMP280;14177;51.520;6.764;2023-09-30T10:18:06;102466.31;;;20.97
69785;BMP280;14177;51.520;6.764;2023-09-30T10:20:43;102444.97;;;20.84
69785;BMP280;14177;51.520;6.764;2023-09-30T10:23:22;102442.88;;;20.72
69785;BMP280;14177;51.520;6.764;2023-09-30T10:28:42;102460.56;;;20.33
69785;BMP280;14177;51.520;6.764;2023-09-30T10:31:19;102461.66;;;20.09
69785;BMP280;14177;51.520;6.764;2023-09-30T10:36:36;102456.03;;;19.76
69785;BMP280;14177;51.520;6.764;2023-09-30T10:39:14;102462.19;;;19.56
69785;BMP280;14177;51.520;6.764;2023-09-30T10:46:59;102473.75;;;19.53
69785;BMP280;14177;51.520;6.764;2023-09-30T10:49:30;102454.63;;;19.48
69785;BMP280;14177;51.520;6.764;2023-09-30T10:52:02;102451.06;;;19.49
69785;BMP280;14177;51.520;6.764;2023-09-30T10:54:32;102446.59;;;19.51
69785;BMP280;14177;51.520;6.764;2023-09-30T10:57:00;102450.00;;;19.53
69785;BMP280;14177;51.520;6.764;2023-09-30T10:59:29;102443.69;;;19.57
69785;BMP280;14177;51.520;6.764;2023-09-30T11:02:02;102440.94;;;19.60
69785;BMP280;14177;51.520;6.764;2023-09-30T11:04:30;102446.06;;;19.63
69785;BMP280;14177;51.520;6.764;2023-09-30T11:06:59;102441.44;;;19.68
69785;BMP280;14177;51.520;6.764;2023-09-30T11:09:29;102441.31;;;19.71
69785;BMP280;14177;51.520;6.764;2023-09-30T11:11:56;102443.69;;;19.97
69785;BMP280;14177;51.520;6.764;2023-09-30T11:14:26;102421.78;;;20.15
69785;BMP280;14177;51.520;6.764;2023-09-30T11:17:02;102415.59;;;20.16
69785;BMP280;14177;51.520;6.764;2023-09-30T11:19:47;102414.28;;;20.06
69785;BMP280;14177;51.520;6.764;2023-09-30T11:22:15;102408.47;;;19.98
69785;BMP280;14177;51.520;6.764;2023-09-30T11:24:43;102402.25;;;20.00
69785;BMP280;14177;51.520;6.764;2023-09-30T11:27:10;102405.50;;;20.05
69785;BMP280;14177;51.520;6.764;2023-09-30T11:29:37;102417.50;;;20.12
69785;BMP280;14177;51.520;6.764;2023-09-30T11:32:04;102408.09;;;20.25
69785;BMP280;14177;51.520;6.764;2023-09-30T11:34:36;102413.97;;;20.32
69785;BMP280;14177;51.520;6.764;2023-09-30T11:37:04;102406.41;;;20.43
69785;BMP280;14177;51.520;6.764;2023-09-30T11:39:32;102405.97;;;20.52
69785;BMP280;14177;51.520;6.764;2023-09-30T11:42:00;102399.56;;;20.57
69785;BMP280;14177;51.520;6.764;2023-09-30T11:44:28;102404.84;;;20.57
69785;BMP280;14177;51.520;6.764;2023-09-30T11:47:02;102405.19;;;20.50
69785;BMP280;14177;51.520;6.764;2023-09-30T11:49:37;102405.47;;;20.44
69785;BMP280;14177;51.520;6.764;2023-09-30T11:52:10;102407.97;;;20.47
69785;BMP280;14177;51.520;6.764;2023-09-30T11:54:39;102408.75;;;20.49
69785;BMP280;14177;51.520;6.764;2023-09-30T11:57:10;102422.88;;;20.48
69785;BMP280;14177;51.520;6.764;2023-09-30T11:59:38;102407.69;;;20.53
69785;BMP280;14177;51.520;6.764;2023-09-30T12:02:09;102407.13;;;20.65
69785;BMP280;14177;51.520;6.764;2023-09-30T12:04:43;102397.81;;;20.93
69785;BMP280;14177;51.520;6.764;2023-09-30T12:07:11;102399.03;;;21.38
69785;BMP280;14177;51.520;6.764;2023-09-30T12:09:38;102377.78;;;21.91
69785;BMP280;14177;51.520;6.764;2023-09-30T12:12:08;102372.75;;;22.34
69785;BMP280;14177;51.520;6.764;2023-09-30T12:14:37;102373.22;;;22.88
69785;BMP280;14177;51.520;6.764;2023-09-30T12:17:04;102368.53;;;23.23
69785;BMP280;14177;51.520;6.764;2023-09-30T12:19:31;102361.41;;;23.52
69785;BMP280;14177;51.520;6.764;2023-09-30T12:21:58;102362.44;;;23.93
69785;BMP280;14177;51.520;6.764;2023-09-30T12:24:25;102346.22;;;24.12
69785;BMP280;14177;51.520;6.764;2023-09-30T12:26:54;102342.13;;;24.06
69785;BMP280;14177;51.520;6.764;2023-09-30T12:29:23;102353.34;;;23.97
69785;BMP280;14177;51.520;6.764;2023-09-30T12:31:53;102369.59;;;23.77
69785;BMP280;14177;51.520;6.764;2023-09-30T12:34:22;102367.38;;;23.70
69785;BMP280;14177;51.520;6.764;2023-09-30T12:36:54;102369.56;;;23.63
69785;BMP280;14177;51.520;6.764;2023-09-30T12:39:22;102363.44;;;23.34
69785;BMP280;14177;51.520;6.764;2023-09-30T12:41:53;102368.63;;;23.06
69785;BMP280;14177;51.520;6.764;2023-09-30T12:44:20;102368.38;;;23.10
69785;BMP280;14177;51.520;6.764;2023-09-30T12:46:47;102362.63;;;23.02
69785;BMP280;14177;51.520;6.764;2023-09-30T12:49:15;102361.25;;;22.81
69785;BMP280;14177;51.520;6.764;2023-09-30T12:51:42;102356.53;;;22.71
69785;BMP280;14177;51.520;6.764;2023-09-30T12:54:09;102357.06;;;22.62
69785;BMP280;14177;51.520;6.764;2023-09-30T12:56:38;102348.28;;;22.46
69785;BMP280;14177;51.520;6.764;2023-09-30T12:59:04;102354.09;;;22.37
69785;BMP280;14177;51.520;6.764;2023-09-30T13:01:32;102352.81;;;22.44
69785;BMP280;14177;51.520;6.764;2023-09-30T13:04:02;102343.31;;;22.55
69785;BMP280;14177;51.520;6.764;2023-09-30T13:06:30;102345.06;;;22.86
69785;BMP280;14177;51.520;6.764;2023-09-30T13:08:59;102336.25;;;23.01
69785;BMP280;14177;51.520;6.764;2023-09-30T13:11:28;102336.78;;;22.92
69785;BMP280;14177;51.520;6.764;2023-09-30T13:13:55;102325.09;;;22.80
69785;BMP280;14177;51.520;6.764;2023-09-30T13:16:23;102321.94;;;22.74
69785;BMP280;14177;51.520;6.764;2023-09-30T13:18:50;102322.88;;;22.73
69785;BMP280;14177;51.520;6.764;2023-09-30T13:21:19;102314.03;;;22.43
69785;BMP280;14177;51.520;6.764;2023-09-30T13:23:46;102315.69;;;22.28
69785;BMP280;14177;51.520;6.764;2023-09-30T13:26:13;102311.16;;;22.15
69785;BMP280;14177;51.520;6.764;2023-09-30T13:28:40;102301.94;;;22.07
69785;BMP280;14177;51.520;6.764;2023-09-30T13:31:07;102304.66;;;22.05
69785;BMP280;14177;51.520;6.764;2023-09-30T13:33:35;102311.84;;;22.03
69785;BMP280;14177;51.520;6.764;2023-09-30T13:36:02;102306.88;;;21.97
69785;BMP280;14177;51.520;6.764;2023-09-30T13:38:29;102302.28;;;21.85
69785;BMP280;14177;51.520;6.764;2023-09-30T13:40:56;102307.28;;;21.74
69785;BMP280;14177;51.520;6.764;2023-09-30T13:43:23;102321.88;;;21.81
69785;BMP280;14177;51.520;6.764;2023-09-30T13:45:50;102316.75;;;21.78
69785;BMP280;14177;51.520;6.764;2023-09-30T13:48:17;102313.34;;;21.76
69785;BMP280;14177;51.520;6.764;2023-09-30T13:50:44;102309.69;;;21.62
69785;BMP280;14177;51.520;6.764;2023-09-30T13:53:11;102314.75;;;21.49
69785;BMP280;14177;51.520;6.764;2023-09-30T13:55:38;102300.69;;;21.49
69785;BMP280;14177;51.520;6.764;2023-09-30T13:58:06;102301.44;;;21.51
69785;BMP280;14177;51.520;6.764;2023-09-30T14:00:33;102297.63;;;21.56
69785;BMP280;14177;51.520;6.764;2023-09-30T14:03:01;102303.84;;;21.72
69785;BMP280;14177;51.520;6.764;2023-09-30T14:05:28;102291.50;;;21.88
69785;BMP280;14177;51.520;6.764;2023-09-30T14:07:55;102292.97;;;22.09
69785;BMP280;14177;51.520;6.764;2023-09-30T14:10:22;102287.69;;;22.24
69785;BMP280;14177;51.520;6.764;2023-09-30T14:12:50;102284.78;;;22.29
69785;BMP280;14177;51.520;6.764;2023-09-30T14:15:17;102291.97;;;22.27
69785;BMP280;14177;51.520;6.764;2023-09-30T14:17:44;102284.38;;;22.21
69785;BMP280;14177;51.520;6.764;2023-09-30T14:20:12;102282.31;;;22.26